createdAt,value
2022-12-18T00:00:07.829Z,64.08
2022-12-18T00:02:41.839Z,64.69
2022-12-18T00:05:11.392Z,64.41
2022-12-18T00:07:39.900Z,64.94
2022-12-18T00:10:09.010Z,64.75
2022-12-18T00:12:37.027Z,64.43
2022-12-18T00:15:05.716Z,63.94
2022-12-18T00:17:33.723Z,64.00
2022-12-18T00:20:01.751Z,64.06
2022-12-18T00:22:31.126Z,63.68
2022-12-18T00:24:59.124Z,64.28
2022-12-18T00:27:27.158Z,64.63
2022-12-18T00:29:55.162Z,64.79
2022-12-18T00:32:23.355Z,64.44
2022-12-18T00:34:51.352Z,64.37
2022-12-18T00:37:20.448Z,64.33
2022-12-18T00:39:53.915Z,63.73
2022-12-18T00:42:39.591Z,64.21
2022-12-18T00:45:12.638Z,63.95
2022-12-18T00:47:41.605Z,64.30
2022-12-18T00:50:11.293Z,64.88
2022-12-18T00:52:39.338Z,64.21
2022-12-18T00:55:09.909Z,63.71
2022-12-18T00:57:38.029Z,63.27
2022-12-18T01:00:08.523Z,63.74
2022-12-18T01:02:36.810Z,63.41
2022-12-18T01:05:05.387Z,63.47
2022-12-18T01:07:33.402Z,63.53
2022-12-18T01:10:01.428Z,63.38
2022-12-18T01:12:30.884Z,64.40
2022-12-18T01:14:58.900Z,64.55
2022-12-18T01:17:26.944Z,64.18
2022-12-18T01:19:55.026Z,63.95
2022-12-18T01:22:23.111Z,63.50
2022-12-18T01:24:51.249Z,63.37
2022-12-18T01:27:19.321Z,63.18
2022-12-18T01:29:50.989Z,63.49
2022-12-18T01:32:21.160Z,63.71
2022-12-18T01:34:49.221Z,63.88
2022-12-18T01:37:17.213Z,63.53
2022-12-18T01:39:45.305Z,63.24
2022-12-18T01:42:16.591Z,62.95
2022-12-18T01:45:05.488Z,63.02
2022-12-18T01:47:37.641Z,63.27
2022-12-18T01:50:10.193Z,63.10
2022-12-18T01:52:39.199Z,63.60
2022-12-18T01:55:09.153Z,63.50
2022-12-18T01:57:37.817Z,63.31
2022-12-18T02:00:10.262Z,63.07
2022-12-18T02:02:42.217Z,63.09
2022-12-18T02:05:12.085Z,62.73
2022-12-18T02:07:48.441Z,63.05
2022-12-18T02:10:22.756Z,63.56
2022-12-18T02:13:09.093Z,63.11
2022-12-18T02:15:42.708Z,62.60
2022-12-18T02:18:14.219Z,62.92
2022-12-18T02:20:48.228Z,62.71
2022-12-18T02:23:33.458Z,62.80
2022-12-18T02:26:09.761Z,62.64
2022-12-18T02:28:43.350Z,62.39
2022-12-18T02:31:16.921Z,62.40
2022-12-18T02:33:47.313Z,62.80
2022-12-18T02:36:18.291Z,62.96
2022-12-18T02:38:48.752Z,63.10
2022-12-18T02:41:20.483Z,63.07
2022-12-18T02:43:58.059Z,62.87
2022-12-18T02:46:32.584Z,63.06
2022-12-18T02:49:16.975Z,62.30
2022-12-18T02:51:54.798Z,62.29
2022-12-18T02:54:35.305Z,62.12
2022-12-18T02:57:12.732Z,62.35
2022-12-18T02:59:49.738Z,62.34
2022-12-18T03:02:24.725Z,62.25
2022-12-18T03:05:00.531Z,62.02
2022-12-18T03:07:36.154Z,62.05
2022-12-18T03:10:08.979Z,62.43
2022-12-18T03:12:45.075Z,62.49
2022-12-18T03:15:18.177Z,62.21
2022-12-18T03:17:54.147Z,61.83
2022-12-18T03:20:24.803Z,61.81
2022-12-18T03:23:02.100Z,62.26
2022-12-18T03:25:32.608Z,62.30
2022-12-18T03:28:04.237Z,62.64
2022-12-18T03:30:34.657Z,62.52
2022-12-18T03:33:09.929Z,62.24
2022-12-18T03:35:42.077Z,62.29
2022-12-18T03:38:11.266Z,62.44
2022-12-18T03:40:55.225Z,62.59
2022-12-18T03:43:37.090Z,62.47
2022-12-18T03:46:10.128Z,62.44
2022-12-18T03:48:44.152Z,62.60
2022-12-18T03:51:20.909Z,62.52
2022-12-18T03:53:55.605Z,63.31
2022-12-18T03:56:32.719Z,62.73
2022-12-18T03:59:05.181Z,62.57
2022-12-18T04:01:37.473Z,62.68
2022-12-18T04:04:08.114Z,62.65
2022-12-18T04:06:40.765Z,62.67
2022-12-18T04:09:11.710Z,62.48
2022-12-18T04:11:45.452Z,62.72
2022-12-18T04:14:18.264Z,63.16
2022-12-18T04:16:50.026Z,63.05
2022-12-18T04:19:20.548Z,63.33
2022-12-18T04:21:51.597Z,63.09
2022-12-18T04:24:19.786Z,62.97
2022-12-18T04:26:59.409Z,62.91
2022-12-18T04:29:34.514Z,62.66
2022-12-18T04:32:02.793Z,62.71
2022-12-18T04:34:32.772Z,62.49
2022-12-18T04:37:00.852Z,62.37
2022-12-18T04:39:28.853Z,62.62
2022-12-18T04:42:01.543Z,62.10
2022-12-18T04:44:30.050Z,62.71
2022-12-18T04:46:59.521Z,62.47
2022-12-18T04:49:27.550Z,62.24
2022-12-18T04:51:55.816Z,62.20
2022-12-18T04:54:23.809Z,61.99
2022-12-18T04:56:52.184Z,61.99
2022-12-18T04:59:20.515Z,62.23
2022-12-18T05:01:48.685Z,62.22
2022-12-18T05:04:18.218Z,62.27
2022-12-18T05:06:46.505Z,62.50
2022-12-18T05:09:14.545Z,62.10
2022-12-18T05:11:42.603Z,62.27
2022-12-18T05:14:10.613Z,62.28
2022-12-18T05:16:38.613Z,62.64
2022-12-18T05:19:06.682Z,62.33
2022-12-18T05:21:36.219Z,62.62
2022-12-18T05:24:04.412Z,62.00
2022-12-18T05:26:32.384Z,62.18
2022-12-18T05:29:00.392Z,61.77
2022-12-18T05:31:28.780Z,61.60
2022-12-18T05:33:56.867Z,61.85
2022-12-18T05:36:24.871Z,61.90
2022-12-18T05:38:54.264Z,61.54
2022-12-18T05:41:22.237Z,61.38
2022-12-18T05:43:50.242Z,61.41
2022-12-18T05:46:20.206Z,61.63
2022-12-18T05:48:49.191Z,61.25
2022-12-18T05:51:20.127Z,61.64
2022-12-18T05:53:49.175Z,61.73
2022-12-18T05:56:21.571Z,61.88
2022-12-18T05:58:49.732Z,61.71
2022-12-18T06:01:19.637Z,61.61
2022-12-18T06:03:48.128Z,61.66
2022-12-18T06:06:17.496Z,61.57
2022-12-18T06:08:46.649Z,62.15
2022-12-18T06:11:15.348Z,61.63
2022-12-18T06:13:44.737Z,61.81
2022-12-18T06:16:12.743Z,61.06
2022-12-18T06:18:41.018Z,61.26
2022-12-18T06:21:09.086Z,61.27
2022-12-18T06:23:38.041Z,61.32
2022-12-18T06:26:08.823Z,61.31
2022-12-18T06:28:37.175Z,61.50
2022-12-18T06:31:07.988Z,61.28
2022-12-18T06:33:36.121Z,60.75
2022-12-18T06:36:06.631Z,60.96
2022-12-18T06:38:36.350Z,60.96
2022-12-18T06:41:09.056Z,60.93
2022-12-18T06:43:37.651Z,60.87
2022-12-18T06:46:08.217Z,60.96
2022-12-18T06:48:36.448Z,61.12
2022-12-18T06:51:05.169Z,60.86
2022-12-18T06:53:34.132Z,60.80
2022-12-18T06:56:09.236Z,61.28
2022-12-18T06:58:37.793Z,61.37
2022-12-18T07:01:09.583Z,60.98
2022-12-18T07:03:38.570Z,61.20
2022-12-18T07:06:07.354Z,61.53
2022-12-18T07:08:35.379Z,61.67
2022-12-18T07:11:06.121Z,61.15
2022-12-18T07:13:34.165Z,61.26
2022-12-18T07:16:16.009Z,61.02
2022-12-18T07:18:47.121Z,61.86
2022-12-18T07:21:17.711Z,61.48
2022-12-18T07:23:48.866Z,61.79
2022-12-18T07:26:21.277Z,61.70
2022-12-18T07:28:49.490Z,61.70
2022-12-18T07:31:22.396Z,61.38
2022-12-18T07:33:51.561Z,61.78
2022-12-18T07:36:25.268Z,61.26
2022-12-18T07:38:54.031Z,61.50
2022-12-18T07:41:22.576Z,61.38
2022-12-18T07:43:50.883Z,61.13
2022-12-18T07:46:20.649Z,61.43
2022-12-18T07:48:49.983Z,61.33
2022-12-18T07:51:19.574Z,61.35
2022-12-18T07:53:49.698Z,61.15
2022-12-18T07:56:30.389Z,61.38
2022-12-18T07:58:59.887Z,61.05
2022-12-18T08:01:31.964Z,61.14
2022-12-18T08:04:00.200Z,61.10
2022-12-18T08:06:28.211Z,61.09
2022-12-18T08:08:57.301Z,61.02
2022-12-18T08:11:27.031Z,61.56
2022-12-18T08:13:55.655Z,61.76
2022-12-18T08:16:25.421Z,61.71
2022-12-18T08:18:55.595Z,61.29
2022-12-18T08:21:25.620Z,61.78
2022-12-18T08:23:54.999Z,61.83
2022-12-18T08:26:23.668Z,61.46
2022-12-18T08:28:52.515Z,61.32
2022-12-18T08:31:21.287Z,61.47
2022-12-18T08:33:51.415Z,61.02
2022-12-18T08:36:21.460Z,60.52
2022-12-18T08:38:49.676Z,60.83
2022-12-18T08:41:19.143Z,61.15
2022-12-18T08:44:05.068Z,61.42
2022-12-18T08:46:38.625Z,61.58
2022-12-18T08:49:07.726Z,61.07
2022-12-18T08:51:37.781Z,60.70
2022-12-18T08:54:06.980Z,61.02
2022-12-18T08:56:35.321Z,60.69
2022-12-18T08:59:03.699Z,60.14
2022-12-18T09:01:32.565Z,60.52
2022-12-18T09:04:01.747Z,60.97
2022-12-18T09:06:29.762Z,60.42
2022-12-18T09:08:59.563Z,60.49
2022-12-18T09:11:30.361Z,60.12
2022-12-18T09:13:58.881Z,59.91
2022-12-18T09:16:32.233Z,59.85
2022-12-18T09:19:01.555Z,59.93
2022-12-18T09:21:31.740Z,60.62
2022-12-18T09:24:02.957Z,60.83
2022-12-18T09:26:31.631Z,60.25
2022-12-18T09:28:59.667Z,59.80
2022-12-18T09:31:27.714Z,59.49
2022-12-18T09:33:57.293Z,60.08
2022-12-18T09:36:25.398Z,59.74
2022-12-18T09:38:54.202Z,59.54
2022-12-18T09:41:38.347Z,58.84
2022-12-18T09:44:14.747Z,59.28
2022-12-18T09:46:46.789Z,58.95
2022-12-18T09:49:19.713Z,58.86
2022-12-18T09:51:54.998Z,58.87
2022-12-18T09:54:27.427Z,59.09
2022-12-18T09:56:57.444Z,58.66
2022-12-18T09:59:29.184Z,58.22
2022-12-18T10:01:58.734Z,57.78
2022-12-18T10:04:32.971Z,57.64
2022-12-18T10:07:09.400Z,57.65
2022-12-18T10:09:43.562Z,57.60
2022-12-18T10:12:23.395Z,56.69
2022-12-18T10:14:57.305Z,56.81
2022-12-18T10:17:35.906Z,56.66
2022-12-18T10:20:07.464Z,55.96
2022-12-18T10:22:49.842Z,56.08
2022-12-18T10:25:26.315Z,56.68
2022-12-18T10:27:59.286Z,57.00
2022-12-18T10:30:27.983Z,58.16
2022-12-18T10:32:57.199Z,58.04
2022-12-18T10:35:27.783Z,52.77
2022-12-18T10:38:07.856Z,55.02
2022-12-18T10:40:50.715Z,53.94
2022-12-18T10:43:23.999Z,49.37
2022-12-18T10:46:14.063Z,49.33
2022-12-18T10:48:50.000Z,47.63
2022-12-18T10:51:22.956Z,45.76
2022-12-18T10:53:56.632Z,45.43
2022-12-18T10:56:26.920Z,45.12
2022-12-18T10:59:01.744Z,46.00
2022-12-18T11:01:47.545Z,46.64
2022-12-18T11:04:21.115Z,47.43
2022-12-18T11:06:57.902Z,48.44
2022-12-18T11:09:27.829Z,50.05
2022-12-18T11:11:58.169Z,50.22
2022-12-18T11:14:29.676Z,49.86
2022-12-18T11:19:55.225Z,51.60
2022-12-18T11:22:27.434Z,51.48
2022-12-18T11:27:51.430Z,51.53
2022-12-18T11:30:26.521Z,51.39
2022-12-18T11:32:57.977Z,51.59
2022-12-18T11:35:36.758Z,51.39
2022-12-18T11:38:12.913Z,51.86
2022-12-18T11:40:46.148Z,52.15
2022-12-18T11:43:18.974Z,52.44
2022-12-18T11:45:54.815Z,52.43
2022-12-18T11:48:27.084Z,52.41
2022-12-18T11:50:56.800Z,52.16
2022-12-18T11:53:26.327Z,52.83
2022-12-18T11:56:21.869Z,53.43
2022-12-18T11:58:55.150Z,53.52
2022-12-18T12:01:44.009Z,53.89
2022-12-18T12:04:43.178Z,53.36
2022-12-18T12:07:23.373Z,53.19
2022-12-18T12:10:01.874Z,52.72
2022-12-18T12:12:51.164Z,53.53
2022-12-18T12:15:36.773Z,53.22
2022-12-18T12:18:15.780Z,53.06
2022-12-18T12:20:53.409Z,53.22
2022-12-18T12:23:32.379Z,53.49
2022-12-18T12:26:05.065Z,53.33
2022-12-18T12:28:58.568Z,53.21
2022-12-18T12:31:39.589Z,53.60
2022-12-18T12:34:19.076Z,53.81
2022-12-18T12:36:59.885Z,53.95
2022-12-18T12:39:34.066Z,53.47
2022-12-18T12:42:20.197Z,54.30
2022-12-18T12:44:56.205Z,54.34
2022-12-18T12:47:28.920Z,54.81
2022-12-18T12:50:00.754Z,54.66
2022-12-18T12:52:36.342Z,54.85
2022-12-18T12:55:14.459Z,55.23
2022-12-18T12:57:48.024Z,55.05
2022-12-18T13:00:20.245Z,54.62
2022-12-18T13:02:54.789Z,55.04
2022-12-18T13:05:28.959Z,55.61
2022-12-18T13:08:01.377Z,55.29
2022-12-18T13:10:35.393Z,54.83
2022-12-18T13:13:05.548Z,54.61
2022-12-18T13:15:41.846Z,54.98
2022-12-18T13:18:19.518Z,54.91
2022-12-18T13:20:54.399Z,55.71
2022-12-18T13:23:42.834Z,55.55
2022-12-18T13:26:37.970Z,55.19
2022-12-18T13:29:07.123Z,55.53
2022-12-18T13:32:05.611Z,54.60
2022-12-18T13:34:37.385Z,55.35
2022-12-18T13:37:43.957Z,55.14
2022-12-18T13:40:57.525Z,55.44
2022-12-18T13:43:38.611Z,55.97
2022-12-18T13:46:21.385Z,56.36
2022-12-18T13:48:59.659Z,55.90
2022-12-18T13:51:28.729Z,55.98
2022-12-18T13:54:00.107Z,56.00
2022-12-18T13:56:29.909Z,56.33
2022-12-18T13:59:24.610Z,55.87
2022-12-18T14:01:55.576Z,55.78
2022-12-18T14:04:26.549Z,55.75
2022-12-18T14:06:57.514Z,55.94
2022-12-18T14:09:29.156Z,55.81
2022-12-18T14:12:13.126Z,56.54
2022-12-18T14:14:46.440Z,55.65
2022-12-18T14:17:17.935Z,55.92
2022-12-18T14:19:48.505Z,55.80
2022-12-18T14:22:19.243Z,56.11
2022-12-18T14:24:47.874Z,55.90
2022-12-18T14:27:24.119Z,56.69
2022-12-18T14:29:53.861Z,56.54
2022-12-18T14:32:23.496Z,56.42
2022-12-18T14:34:52.968Z,56.26
2022-12-18T14:37:25.199Z,56.58
2022-12-18T14:39:59.090Z,56.19
2022-12-18T14:42:29.364Z,56.49
2022-12-18T14:45:41.347Z,56.47
2022-12-18T14:48:19.098Z,56.85
2022-12-18T14:51:00.447Z,57.03
2022-12-18T14:53:36.927Z,57.17
2022-12-18T14:56:12.424Z,57.13
2022-12-18T14:58:40.833Z,57.51
2022-12-18T15:01:10.459Z,57.47
2022-12-18T15:03:45.908Z,56.75
2022-12-18T15:06:19.776Z,57.06
2022-12-18T15:08:48.575Z,57.92
2022-12-18T15:11:31.776Z,57.50
2022-12-18T15:14:01.743Z,57.15
2022-12-18T15:16:31.452Z,57.14
2022-12-18T15:18:59.764Z,57.13
2022-12-18T15:21:31.667Z,57.00
2022-12-18T15:24:01.509Z,57.20
2022-12-18T15:26:39.620Z,56.78
2022-12-18T15:29:11.366Z,56.62
2022-12-18T15:31:46.530Z,56.17
2022-12-18T15:34:21.343Z,56.99
2022-12-18T15:36:49.711Z,56.97
2022-12-18T15:39:18.264Z,56.59
2022-12-18T15:42:00.752Z,56.48
2022-12-18T15:44:29.435Z,55.91
2022-12-18T15:46:59.188Z,56.34
2022-12-18T15:49:27.742Z,55.94
2022-12-18T15:51:58.786Z,55.23
2022-12-18T15:54:41.073Z,55.61
2022-12-18T15:57:27.586Z,55.48
2022-12-18T15:59:59.512Z,55.13
2022-12-18T16:02:30.101Z,55.34
2022-12-18T16:04:58.789Z,55.61
2022-12-18T16:07:30.309Z,55.32
2022-12-18T16:10:02.697Z,55.11
2022-12-18T16:12:31.150Z,55.41
2022-12-18T16:14:59.459Z,55.10
2022-12-18T16:17:29.176Z,55.04
2022-12-18T16:19:57.460Z,54.79
2022-12-18T16:22:27.850Z,54.81
2022-12-18T16:24:57.294Z,55.01
2022-12-18T16:27:26.629Z,55.04
2022-12-18T16:29:54.987Z,55.77
2022-12-18T16:32:24.813Z,55.16
2022-12-18T16:34:54.762Z,55.41
2022-12-18T16:37:23.023Z,55.45
2022-12-18T16:39:51.225Z,55.38
2022-12-18T16:42:21.473Z,54.98
2022-12-18T16:44:51.151Z,54.77
2022-12-18T16:47:24.887Z,54.52
2022-12-18T16:49:56.778Z,54.23
2022-12-18T16:52:25.887Z,54.14
2022-12-18T16:54:54.224Z,54.32
2022-12-18T16:57:25.333Z,54.32
2022-12-18T16:59:54.235Z,54.04
2022-12-18T17:02:24.521Z,54.30
2022-12-18T17:04:56.753Z,53.97
2022-12-18T17:07:25.434Z,53.95
2022-12-18T17:09:54.329Z,53.71
2022-12-18T17:12:23.314Z,53.39
2022-12-18T17:14:51.533Z,54.11
2022-12-18T17:17:22.817Z,54.17
2022-12-18T17:19:51.527Z,54.10
2022-12-18T17:22:21.541Z,53.20
2022-12-18T17:24:49.910Z,53.41
2022-12-18T17:27:18.200Z,53.38
2022-12-18T17:29:48.227Z,53.52
2022-12-18T17:32:17.034Z,53.24
2022-12-18T17:34:45.306Z,53.36
2022-12-18T17:37:13.742Z,52.91
2022-12-18T17:39:43.546Z,52.88
2022-12-18T17:42:15.021Z,52.56
2022-12-18T17:44:44.516Z,52.96
2022-12-18T17:47:13.248Z,52.82
2022-12-18T17:49:42.022Z,52.61
2022-12-18T17:52:10.492Z,52.50
2022-12-18T17:54:41.516Z,52.32
2022-12-18T17:57:11.477Z,52.07
2022-12-18T17:59:39.796Z,52.53
2022-12-18T18:02:08.536Z,52.56
2022-12-18T18:04:37.091Z,52.36
2022-12-18T18:07:05.326Z,52.38
2022-12-18T18:09:33.896Z,52.75
2022-12-18T18:12:19.873Z,52.04
2022-12-18T18:14:49.705Z,51.88
2022-12-18T18:17:18.425Z,51.49
2022-12-18T18:19:49.634Z,51.76
2022-12-18T18:22:18.731Z,51.46
2022-12-18T18:24:47.363Z,51.37
2022-12-18T18:27:16.357Z,51.01
2022-12-18T18:29:45.155Z,50.43
2022-12-18T18:32:14.815Z,51.13
2022-12-18T18:34:43.107Z,50.47
2022-12-18T18:37:12.228Z,50.48
2022-12-18T18:39:40.743Z,50.60
2022-12-18T18:42:09.158Z,50.87
2022-12-18T18:44:37.868Z,51.14
2022-12-18T18:47:06.331Z,50.99
2022-12-18T18:49:39.281Z,50.40
2022-12-18T18:52:08.348Z,50.61
2022-12-18T18:54:36.623Z,50.05
2022-12-18T18:57:20.241Z,50.44
2022-12-18T18:59:49.595Z,50.06
2022-12-18T19:02:19.026Z,49.96
2022-12-18T19:04:48.714Z,50.49
2022-12-18T19:07:26.142Z,50.53
2022-12-18T19:10:04.110Z,50.71
2022-12-18T19:12:51.966Z,50.57
2022-12-18T19:15:20.323Z,50.51
2022-12-18T19:17:48.614Z,50.92
2022-12-18T19:20:18.577Z,50.36
2022-12-18T19:22:55.217Z,50.37
2022-12-18T19:25:40.411Z,50.64
2022-12-18T19:28:17.367Z,50.53
2022-12-18T19:30:56.351Z,50.48
2022-12-18T19:33:45.204Z,50.56
2022-12-18T19:36:19.611Z,50.14
2022-12-18T19:38:48.191Z,50.49
2022-12-18T19:41:17.906Z,50.11
2022-12-18T19:43:47.513Z,49.92
2022-12-18T19:46:17.986Z,50.62
2022-12-18T19:48:47.308Z,50.38
2022-12-18T19:51:18.777Z,50.11
2022-12-18T19:53:47.716Z,50.16
2022-12-18T19:56:18.027Z,49.92
2022-12-18T19:58:46.633Z,49.82
2022-12-18T20:01:16.890Z,50.20
2022-12-18T20:03:50.445Z,50.04
2022-12-18T20:06:27.790Z,50.01
2022-12-18T20:09:00.447Z,50.11
2022-12-18T20:11:30.144Z,50.59
2022-12-18T20:13:58.607Z,50.42
2022-12-18T20:16:30.216Z,50.18
2022-12-18T20:18:59.323Z,50.23
2022-12-18T20:21:29.060Z,50.02
2022-12-18T20:23:59.123Z,49.86
2022-12-18T20:26:27.657Z,50.25
2022-12-18T20:28:56.234Z,50.61
2022-12-18T20:31:24.731Z,50.39
2022-12-18T20:33:53.356Z,50.48
2022-12-18T20:36:28.185Z,50.18
2022-12-18T20:39:01.819Z,50.16
2022-12-18T20:41:35.035Z,49.96
2022-12-18T20:44:10.983Z,50.11
2022-12-18T20:46:51.033Z,50.31
2022-12-18T20:49:19.292Z,50.61
2022-12-18T20:51:50.410Z,50.54
2022-12-18T20:54:20.110Z,50.43
2022-12-18T20:56:48.495Z,50.13
2022-12-18T20:59:16.694Z,50.27
2022-12-18T21:01:48.605Z,50.67
2022-12-18T21:04:18.655Z,50.95
2022-12-18T21:06:53.093Z,50.60
2022-12-18T21:09:25.570Z,50.49
2022-12-18T21:12:14.148Z,50.43
2022-12-18T21:14:43.238Z,50.35
2022-12-18T21:17:12.305Z,50.69
2022-12-18T21:19:40.701Z,50.25
2022-12-18T21:22:09.660Z,50.47
2022-12-18T21:24:39.491Z,50.08
2022-12-18T21:27:07.751Z,50.18
2022-12-18T21:29:36.268Z,49.40
2022-12-18T21:32:05.758Z,50.22
2022-12-18T21:34:34.534Z,50.17
2022-12-18T21:37:03.128Z,50.19
2022-12-18T21:39:31.926Z,49.88
2022-12-18T21:42:18.890Z,49.73
2022-12-18T21:44:49.407Z,49.82
2022-12-18T21:47:22.552Z,50.69
2022-12-18T21:49:53.194Z,50.63
2022-12-18T21:52:29.823Z,50.63
2022-12-18T21:55:08.015Z,50.51
2022-12-18T21:57:39.503Z,50.40
2022-12-18T22:00:18.430Z,50.47
2022-12-18T22:02:48.473Z,50.31
2022-12-18T22:05:36.225Z,50.77
2022-12-18T22:08:04.603Z,50.54
2022-12-18T22:10:33.332Z,50.63
2022-12-18T22:13:03.017Z,50.89
2022-12-18T22:15:31.358Z,51.16
2022-12-18T22:18:00.249Z,50.95
2022-12-18T22:20:29.709Z,51.09
2022-12-18T22:22:58.601Z,50.76
2022-12-18T22:25:27.617Z,50.72
2022-12-18T22:28:13.233Z,50.56
2022-12-18T22:30:42.684Z,50.37
2022-12-18T22:33:10.711Z,50.98
2022-12-18T22:35:38.780Z,51.05
2022-12-18T22:38:07.017Z,50.73
2022-12-18T22:40:35.033Z,50.82
2022-12-18T22:43:03.134Z,51.52
2022-12-18T22:45:31.181Z,50.98
2022-12-18T22:48:02.028Z,51.02
2022-12-18T22:50:30.191Z,50.89
2022-12-18T22:52:58.160Z,50.61
2022-12-18T22:55:26.199Z,50.69
2022-12-18T22:57:54.244Z,50.87
2022-12-18T23:00:24.119Z,51.08
2022-12-18T23:02:59.352Z,50.54
2022-12-18T23:05:30.608Z,51.08
2022-12-18T23:07:59.233Z,51.01
2022-12-18T23:10:27.522Z,50.77
2022-12-18T23:12:55.829Z,50.79
2022-12-18T23:15:27.929Z,50.86
2022-12-18T23:17:57.214Z,50.60
2022-12-18T23:20:25.429Z,51.17
2022-12-18T23:22:54.801Z,51.13
2022-12-18T23:25:22.839Z,51.18
2022-12-18T23:27:50.843Z,51.28
2022-12-18T23:30:19.034Z,51.04
2022-12-18T23:32:47.147Z,51.92
2022-12-18T23:35:15.868Z,52.23
2022-12-18T23:38:00.676Z,53.13
2022-12-18T23:40:31.013Z,53.78
2022-12-18T23:43:00.425Z,54.42
2022-12-18T23:45:28.496Z,54.68
2022-12-18T23:47:56.526Z,55.39
2022-12-18T23:50:29.041Z,55.26
2022-12-18T23:53:05.317Z,56.12
2022-12-18T23:55:39.688Z,55.76
2022-12-18T23:58:08.599Z,57.57
